EGKKEGVN

Guest
Details From EGKK - London Gatwick
To EGVN - Brize Norton Ab
Flight Number -
Tags Generated
Created
Modified
Stats Distance 63 nm / 117 km
Max Altitude 0 ft / 0 m
Waypoints 2
Social Downloads 4
Likes 0
Share VATSIM

Download

Looking for another format? Having issues loading an existing format? Contact us
Advertisement - Login to hide

Notes

Generated

Route

EGKK EGVN

ID Type Via Altitude Latitude Longitude Leg Dist Tot Dist Heading (true) Name
O EGKK APT - 0 ft / 0 m 51.14691˚ -0.21257˚ - 0 nm - -
O EGVN APT - 0 ft / 0 m 51.74607˚ -1.60421˚ 63 nm 63 nm 305° / 304° -

Altitude Profile

Advertisement - Login to hide

EGKK

Details ICAO EGKK (LGW)
Name London Gatwick
Region United Kingdom
Timezone Europe/London (UTC+1.0)
Stats Elevation 196 ft / 60 m (AMSL)
Location 51.148753° -0.192472°
Runways 2
Magnetic Variation 0.369° W

METAR

EGKK 210150Z 07004KT 3500 BR NSC 07/07 Q1018

Decode

TAF

TAF EGKK 202254Z 2100/2206 07006KT 6000 FEW040 TEMPO 2100/2107 3000 BR BKN003 PROB40 TEMPO 2101/2107 0500 FG BKN001 BECMG 2107/2110 9999

Decode

Departure Runways

ID Width Length Bearing (true) Bearing (mag) Surface Threshold Offset Overrun Length
08L 148 ft / 45 m 8,377 ft / 2,553 m 77.69° 78.06° Asphalt 1,053 ft / 321 m 0 ft / 0 m
08R 148 ft / 45 m 10,341 ft / 3,152 m 77.59° 77.96° Asphalt 1,289 ft / 393 m 0 ft / 0 m
26L 148 ft / 45 m 10,341 ft / 3,152 m 257.63° 258.00° Asphalt 879 ft / 268 m 600 ft / 183 m
26R 148 ft / 45 m 8,377 ft / 2,553 m 257.71° 258.08° Asphalt 1,365 ft / 416 m 0 ft / 0 m

EGVN

Details ICAO EGVN (BZZ)
Name RAF Brize Norton
Region United Kingdom
Timezone Europe/London (UTC+1.0)
Stats Elevation 289 ft / 88 m (AMSL)
Location 51.749979° -1.582958°
Runways 1
Magnetic Variation 0.924° W

METAR

EGVN 210150Z 04003KT CAVOK 08/07 Q1019 BECMG 6000 HZ

Decode

TAF

TAF EGVN 202237Z 2100/2124 09006KT CAVOK BECMG 2101/2103 5000 HZ PROB40 2103/2106 4000 BR BECMG 2106/2108 9999 NSW PROB30 TEMPO 2114/2119 3000 +SHRA SCT030CB

Decode

Destination Runways

ID Width Length Bearing (true) Bearing (mag) Surface Threshold Offset Overrun Length
08 184 ft / 56 m 10,016 ft / 3,053 m 73.42° 74.34° Asphalt 0 ft / 0 m 459 ft / 140 m
26 184 ft / 56 m 10,016 ft / 3,053 m 253.46° 254.38° Asphalt 0 ft / 0 m 577 ft / 176 m

Approach Navaids

Runway Type Ident Frequency Range Bearing (true) Bearing (mag) Slope Elevation
08 Localiser BZA 111.90 MHz 18 nm / 33 km 73.48° 74.40° - 288 ft / 88 m (AMSL)
08 Glidescope BZA 111.90 MHz 10 nm / 19 km 73.44° 74.37° 3.20° 289 ft / 88 m (AMSL)
26 Localiser BZB 111.90 MHz 18 nm / 33 km 253.43° 254.36° - 288 ft / 88 m (AMSL)
26 Glidescope BZB 111.90 MHz 10 nm / 19 km 253.44° 254.37° 3.00° 289 ft / 88 m (AMSL)

Popular Alternatives